»·PEaware :: AAY533 KPVU-KIWA

AAY533 :: KPVU-KIWA

FLIGHT INFORMATION

Flight Status: Arrived
Operator:
Allegiant Air
More flights by this operator :: More flights under this callsign
Pilot: James B. (24167)
Aircraft: AIRBUS A320
(A320)
More flights by this aircraft type
Origin: KPVU Provo Mun
United States
Destination: KIWA Williams Gateway
United States
More flights between these airports :: More routes between these airports
Route: +PROVO4 FFU J11 CORKR FLG DSERT2
File this flight plan on PilotEdge
Remarks:
Altitude:
(Current/Filed)
39,000ft
Speed:
(Current/Filed)
448kts
Departed: 12-Oct-19 08:15 PM
Arrived: 12-Oct-19 09:33 PM
Distance/Time
Traveled:
415nm/1:18
Distance/Time
To Go:
Arrived

Flight Plot

Page will automatically refresh every two minutes.

Flight plan parsing failed; only flown route is shown


Map Options




Map Legend


Flown Route
Filed Route
Departure Airport
Arrival Airport
Navaid (VOR, NDB)
Fix

Horizontal Profiles

Position Reports

Time Latitude Longitude Heading Altitude Ground
Speed
12-Oct-19 19:44 40.219439 -111.719413 100 4504ft 0kts
12-Oct-19 19:45 40.219439 -111.719413 100 4504ft 0kts
12-Oct-19 19:46 40.219439 -111.719413 100 4504ft 0kts
12-Oct-19 19:47 40.219439 -111.719413 100 4504ft 0kts
12-Oct-19 19:48 40.219439 -111.719413 100 4504ft 0kts
12-Oct-19 19:49 40.219439 -111.719413 100 4504ft 0kts
12-Oct-19 19:50 40.219439 -111.719413 100 4504ft 0kts
12-Oct-19 19:50 40.219439 -111.719413 100 4504ft 0kts
12-Oct-19 19:52 40.219439 -111.719413 100 4504ft 0kts
12-Oct-19 19:53 40.219439 -111.719413 100 4504ft 0kts
12-Oct-19 19:53 40.219439 -111.719413 100 4504ft 0kts
12-Oct-19 19:54 40.219439 -111.719413 100 4504ft 0kts
12-Oct-19 19:56 40.219439 -111.719413 100 4504ft 0kts
12-Oct-19 19:57 40.219439 -111.719413 100 4504ft 0kts
12-Oct-19 19:57 40.219439 -111.719413 100 4504ft 0kts
12-Oct-19 19:58 40.219439 -111.719413 100 4504ft 0kts
12-Oct-19 19:59 40.219439 -111.719413 100 4504ft 0kts
12-Oct-19 20:00 40.219439 -111.719413 100 4504ft 0kts
12-Oct-19 20:01 40.219439 -111.719413 100 4504ft 0kts
12-Oct-19 20:02 40.219439 -111.719413 100 4504ft 0kts
12-Oct-19 20:03 40.219439 -111.719413 100 4504ft 0kts
12-Oct-19 20:04 40.219439 -111.719413 100 4504ft 0kts
12-Oct-19 20:05 40.219439 -111.719413 100 4504ft 0kts
12-Oct-19 20:06 40.219439 -111.719413 100 4504ft 0kts
12-Oct-19 20:07 40.219439 -111.719413 100 4504ft 0kts
12-Oct-19 20:08 40.219439 -111.719412 100 4504ft 0kts
12-Oct-19 20:09 40.219428 -111.719390 120 4504ft 0kts
12-Oct-19 20:10 40.217966 -111.719419 145 4504ft 11kts
12-Oct-19 20:11 40.215377 -111.717130 145 4503ft 12kts
12-Oct-19 20:12 40.212948 -111.714971 145 4501ft 6kts
12-Oct-19 20:13 40.211119 -111.715208 196 4499ft 5kts
12-Oct-19 20:14 40.216633 -111.720387 325 4504ft 118kts
12-Oct-19 20:15 40.257219 -111.749767 326 6604ft 178kts
12-Oct-19 20:16 40.307528 -111.798554 322 8569ft 263kts
12-Oct-19 20:17 40.364254 -111.868999 283 9128ft 287kts
12-Oct-19 20:18 40.319203 -111.943965 183 11318ft 326kts
12-Oct-19 20:19 40.224949 -111.948098 188 14242ft 346kts
12-Oct-19 20:20 40.127104 -111.962129 188 16960ft 361kts
12-Oct-19 20:21 40.024273 -111.977010 188 19386ft 376kts
12-Oct-19 20:22 39.917455 -111.992446 188 21539ft 391kts
12-Oct-19 20:23 39.807004 -112.008355 188 23469ft 404kts
12-Oct-19 20:24 39.693238 -112.024677 188 25305ft 414kts
12-Oct-19 20:25 39.576888 -112.041310 188 26957ft 424kts
12-Oct-19 20:26 39.458248 -112.058141 188 28491ft 432kts
12-Oct-19 20:27 39.337010 -112.075355 188 29847ft 440kts
12-Oct-19 20:28 39.213845 -112.092801 188 31075ft 448kts
12-Oct-19 20:29 39.089092 -112.110410 189 32234ft 453kts
12-Oct-19 20:30 38.962170 -112.128325 189 33243ft 458kts
12-Oct-19 20:31 38.837274 -112.145839 190 34561ft 451kts
12-Oct-19 20:32 38.713662 -112.163085 191 35818ft 443kts
12-Oct-19 20:33 38.591770 -112.180017 191 36934ft 437kts
12-Oct-19 20:34 38.470665 -112.196756 191 37738ft 435kts
12-Oct-19 20:35 38.350608 -112.213340 192 38419ft 434kts
12-Oct-19 20:36 38.230203 -112.229922 192 39038ft 432kts
12-Oct-19 20:37 38.111759 -112.246162 192 39234ft 425kts
12-Oct-19 20:38 37.992801 -112.262473 192 39237ft 430kts
12-Oct-19 20:39 37.873961 -112.278664 192 39236ft 430kts
12-Oct-19 20:40 37.754556 -112.294890 192 39236ft 430kts
12-Oct-19 20:41 37.635342 -112.307050 189 39237ft 432kts
12-Oct-19 20:42 37.514640 -112.314464 190 39232ft 431kts
12-Oct-19 20:43 37.394803 -112.321880 190 39228ft 431kts
12-Oct-19 20:44 37.274423 -112.329209 190 39149ft 431kts
12-Oct-19 20:45 37.154556 -112.336468 190 39173ft 430kts
12-Oct-19 20:46 37.034612 -112.343708 190 39161ft 428kts
12-Oct-19 20:47 36.915410 -112.350883 190 39151ft 428kts
12-Oct-19 20:48 36.795938 -112.358062 190 39152ft 428kts
12-Oct-19 20:49 36.676862 -112.365189 191 39188ft 427kts
12-Oct-19 20:50 36.557733 -112.372298 191 39176ft 425kts
12-Oct-19 20:51 36.439066 -112.379364 191 39154ft 423kts
12-Oct-19 20:52 36.321265 -112.386359 191 39182ft 423kts
12-Oct-19 20:53 36.202590 -112.393377 191 39203ft 422kts
12-Oct-19 20:54 36.084844 -112.389421 173 39209ft 442kts
12-Oct-19 20:55 35.973144 -112.313619 156 38144ft 460kts
12-Oct-19 20:56 35.864774 -112.228621 155 35728ft 464kts
12-Oct-19 20:57 35.755390 -112.143309 153 33401ft 462kts
12-Oct-19 20:58 35.646304 -112.058522 153 31106ft 456kts
12-Oct-19 20:59 35.539956 -111.976109 153 29258ft 439kts
12-Oct-19 21:00 35.439978 -111.898891 153 29210ft 421kts
12-Oct-19 21:01 35.339827 -111.821867 153 29222ft 424kts
12-Oct-19 21:02 35.239864 -111.745112 153 29096ft 423kts
12-Oct-19 21:03 35.136019 -111.676041 178 29102ft 409kts
12-Oct-19 21:04 35.024880 -111.672889 186 28381ft 395kts
12-Oct-19 21:05 34.915970 -111.671617 185 26760ft 385kts
12-Oct-19 21:06 34.817411 -111.670464 184 25045ft 376kts
12-Oct-19 21:07 34.713111 -111.669246 184 23238ft 366kts
12-Oct-19 21:08 34.612154 -111.668061 184 21466ft 357kts
12-Oct-19 21:09 34.513542 -111.666933 183 19692ft 349kts
12-Oct-19 21:10 34.418375 -111.673735 197 18012ft 332kts
12-Oct-19 21:11 34.329181 -111.700793 197 16377ft 323kts
12-Oct-19 21:12 34.242564 -111.727079 196 14792ft 313kts
12-Oct-19 21:13 34.158860 -111.752444 195 13266ft 303kts
12-Oct-19 21:14 34.076747 -111.777289 195 12204ft 308kts
12-Oct-19 21:15 33.992107 -111.785198 150 12018ft 317kts
12-Oct-19 21:16 33.913413 -111.741296 161 10939ft 305kts
12-Oct-19 21:17 33.834950 -111.705993 161 9660ft 288kts
12-Oct-19 21:18 33.759901 -111.672227 161 8168ft 284kts
12-Oct-19 21:19 33.685002 -111.639238 161 7001ft 287kts
12-Oct-19 21:20 33.608834 -111.606665 161 6997ft 287kts
12-Oct-19 21:21 33.533353 -111.574579 161 6997ft 286kts
12-Oct-19 21:22 33.457379 -111.542224 161 6998ft 286kts
12-Oct-19 21:23 33.382808 -111.511009 160 6789ft 270kts
12-Oct-19 21:24 33.310718 -111.482234 160 5261ft 271kts
12-Oct-19 21:25 33.240305 -111.454515 160 4589ft 245kts
12-Oct-19 21:26 33.180089 -111.449316 227 4028ft 223kts
12-Oct-19 21:27 33.178428 -111.513595 281 4018ft 169kts
12-Oct-19 21:28 33.208271 -111.550373 320 3540ft 153kts
12-Oct-19 21:29 33.240173 -111.582342 316 3011ft 148kts
12-Oct-19 21:30 33.269479 -111.616570 317 2151ft 145kts
12-Oct-19 21:31 33.298453 -111.650400 316 1406ft 143kts
12-Oct-19 21:32 33.311616 -111.666424 225 1360ft 10kts
12-Oct-19 21:33 33.308597 -111.667432 180 1360ft 12kts
12-Oct-19 21:34 33.306331 -111.667699 273 1360ft 4kts
12-Oct-19 21:35 33.306347 -111.668168 270 1360ft 0kts
12-Oct-19 21:36 33.306347 -111.668168 270 1360ft 0kts
12-Oct-19 21:37 33.306347 -111.668168 270 1360ft 0kts
12-Oct-19 21:38 33.306347 -111.668168 270 1360ft 0kts
12-Oct-19 21:39 33.306347 -111.668168 270 1360ft 0kts
12-Oct-19 21:40 33.306347 -111.668168 270 1360ft 0kts
12-Oct-19 21:41 33.306347 -111.668168 270 1360ft 0kts
12-Oct-19 21:42 33.306347 -111.668168 270 1360ft 0kts

Navigation Log

Ident Type
Flight plan parsing failed, navigation log unavailable